sensor_id;sensor_type;location;lat;lon;timestamp;P1;durP1;ratioP1;P2;durP2;ratioP2
6852;SDS011;3465;42.144;24.722;2022-08-19T00:01:23;7.65;;;5.93;;
6852;SDS011;3465;42.144;24.722;2022-08-19T00:03:50;8.82;;;5.72;;
6852;SDS011;3465;42.144;24.722;2022-08-19T00:06:15;11.25;;;6.15;;
6852;SDS011;3465;42.144;24.722;2022-08-19T00:08:41;10.38;;;6.45;;
6852;SDS011;3465;42.144;24.722;2022-08-19T00:11:07;8.43;;;5.38;;
6852;SDS011;3465;42.144;24.722;2022-08-19T00:13:33;9.60;;;5.93;;
6852;SDS011;3465;42.144;24.722;2022-08-19T00:15:59;10.85;;;5.78;;
6852;SDS011;3465;42.144;24.722;2022-08-19T00:18:25;8.45;;;5.72;;
6852;SDS011;3465;42.144;24.722;2022-08-19T00:20:51;11.68;;;5.70;;
6852;SDS011;3465;42.144;24.722;2022-08-19T00:23:17;9.50;;;5.57;;
6852;SDS011;3465;42.144;24.722;2022-08-19T00:25:43;8.57;;;5.55;;
6852;SDS011;3465;42.144;24.722;2022-08-19T00:28:09;6.53;;;5.75;;
6852;SDS011;3465;42.144;24.722;2022-08-19T00:30:34;10.73;;;6.20;;
6852;SDS011;3465;42.144;24.722;2022-08-19T00:33:00;15.98;;;6.35;;
6852;SDS011;3465;42.144;24.722;2022-08-19T00:35:26;11.32;;;5.90;;
6852;SDS011;3465;42.144;24.722;2022-08-19T00:37:52;8.43;;;5.70;;
6852;SDS011;3465;42.144;24.722;2022-08-19T00:40:18;7.72;;;5.45;;
6852;SDS011;3465;42.144;24.722;2022-08-19T00:42:44;9.07;;;5.75;;
6852;SDS011;3465;42.144;24.722;2022-08-19T00:45:14;9.13;;;5.88;;
6852;SDS011;3465;42.144;24.722;2022-08-19T00:47:43;10.55;;;5.55;;
6852;SDS011;3465;42.144;24.722;2022-08-19T00:50:10;9.32;;;5.95;;
6852;SDS011;3465;42.144;24.722;2022-08-19T00:52:42;8.35;;;5.13;;
6852;SDS011;3465;42.144;24.722;2022-08-19T00:55:19;9.07;;;5.78;;
6852;SDS011;3465;42.144;24.722;2022-08-19T00:57:50;8.57;;;5.80;;
6852;SDS011;3465;42.144;24.722;2022-08-19T01:00:21;9.15;;;5.75;;
6852;SDS011;3465;42.144;24.722;2022-08-19T01:02:48;8.07;;;5.85;;
6852;SDS011;3465;42.144;24.722;2022-08-19T01:05:14;8.25;;;6.13;;
6852;SDS011;3465;42.144;24.722;2022-08-19T01:07:46;9.30;;;5.97;;
6852;SDS011;3465;42.144;24.722;2022-08-19T01:10:15;8.05;;;5.32;;
6852;SDS011;3465;42.144;24.722;2022-08-19T01:12:43;9.95;;;6.00;;
6852;SDS011;3465;42.144;24.722;2022-08-19T01:15:11;10.55;;;6.10;;
6852;SDS011;3465;42.144;24.722;2022-08-19T01:17:39;8.75;;;6.25;;
6852;SDS011;3465;42.144;24.722;2022-08-19T01:20:06;11.23;;;5.97;;
6852;SDS011;3465;42.144;24.722;2022-08-19T01:22:49;11.93;;;6.47;;
6852;SDS011;3465;42.144;24.722;2022-08-19T01:25:18;10.32;;;7.00;;
6852;SDS011;3465;42.144;24.722;2022-08-19T01:27:47;10.88;;;6.28;;
6852;SDS011;3465;42.144;24.722;2022-08-19T01:30:16;11.05;;;6.20;;
6852;SDS011;3465;42.144;24.722;2022-08-19T01:32:45;9.43;;;6.68;;
6852;SDS011;3465;42.144;24.722;2022-08-19T01:35:11;10.00;;;6.72;;
6852;SDS011;3465;42.144;24.722;2022-08-19T01:37:57;10.52;;;6.25;;
6852;SDS011;3465;42.144;24.722;2022-08-19T01:40:29;11.40;;;6.22;;
6852;SDS011;3465;42.144;24.722;2022-08-19T01:42:56;10.18;;;6.25;;
6852;SDS011;3465;42.144;24.722;2022-08-19T01:45:23;18.00;;;6.90;;
6852;SDS011;3465;42.144;24.722;2022-08-19T01:47:50;11.43;;;6.57;;
6852;SDS011;3465;42.144;24.722;2022-08-19T01:50:16;12.73;;;6.60;;
6852;SDS011;3465;42.144;24.722;2022-08-19T01:52:42;10.50;;;7.03;;
6852;SDS011;3465;42.144;24.722;2022-08-19T01:55:10;11.48;;;6.40;;
6852;SDS011;3465;42.144;24.722;2022-08-19T01:57:38;10.27;;;6.28;;
6852;SDS011;3465;42.144;24.722;2022-08-19T02:00:07;11.70;;;6.70;;
6852;SDS011;3465;42.144;24.722;2022-08-19T02:02:35;16.75;;;7.45;;
6852;SDS011;3465;42.144;24.722;2022-08-19T02:05:01;12.80;;;6.38;;
6852;SDS011;3465;42.144;24.722;2022-08-19T02:07:26;11.15;;;6.10;;
6852;SDS011;3465;42.144;24.722;2022-08-19T02:09:53;10.88;;;6.28;;
6852;SDS011;3465;42.144;24.722;2022-08-19T02:12:20;11.63;;;6.28;;
6852;SDS011;3465;42.144;24.722;2022-08-19T02:14:45;10.98;;;6.38;;
6852;SDS011;3465;42.144;24.722;2022-08-19T02:17:11;12.95;;;6.60;;
6852;SDS011;3465;42.144;24.722;2022-08-19T02:19:36;7.97;;;6.18;;
6852;SDS011;3465;42.144;24.722;2022-08-19T02:22:02;10.38;;;6.47;;
6852;SDS011;3465;42.144;24.722;2022-08-19T02:24:27;11.65;;;6.30;;
6852;SDS011;3465;42.144;24.722;2022-08-19T02:26:53;8.95;;;6.45;;
6852;SDS011;3465;42.144;24.722;2022-08-19T02:29:18;12.48;;;6.72;;
6852;SDS011;3465;42.144;24.722;2022-08-19T02:31:44;10.05;;;6.30;;
6852;SDS011;3465;42.144;24.722;2022-08-19T02:34:09;12.52;;;6.40;;
6852;SDS011;3465;42.144;24.722;2022-08-19T02:36:35;8.90;;;6.30;;
6852;SDS011;3465;42.144;24.722;2022-08-19T02:39:00;14.90;;;6.80;;
6852;SDS011;3465;42.144;24.722;2022-08-19T02:41:27;16.00;;;7.35;;
6852;SDS011;3465;42.144;24.722;2022-08-19T02:43:56;14.05;;;7.00;;
6852;SDS011;3465;42.144;24.722;2022-08-19T02:46:27;13.32;;;7.00;;
6852;SDS011;3465;42.144;24.722;2022-08-19T02:48:56;10.90;;;6.90;;
6852;SDS011;3465;42.144;24.722;2022-08-19T02:51:24;12.07;;;7.00;;
6852;SDS011;3465;42.144;24.722;2022-08-19T02:53:54;11.30;;;7.07;;
6852;SDS011;3465;42.144;24.722;2022-08-19T02:56:20;11.02;;;7.00;;
6852;SDS011;3465;42.144;24.722;2022-08-19T02:58:47;10.38;;;7.60;;
6852;SDS011;3465;42.144;24.722;2022-08-19T03:01:27;15.27;;;7.22;;
6852;SDS011;3465;42.144;24.722;2022-08-19T03:03:55;13.15;;;7.05;;
6852;SDS011;3465;42.144;24.722;2022-08-19T03:06:22;12.07;;;7.22;;
6852;SDS011;3465;42.144;24.722;2022-08-19T03:08:48;12.10;;;7.13;;
6852;SDS011;3465;42.144;24.722;2022-08-19T03:11:24;10.73;;;7.22;;
6852;SDS011;3465;42.144;24.722;2022-08-19T03:13:51;17.80;;;7.45;;
6852;SDS011;3465;42.144;24.722;2022-08-19T03:16:18;14.00;;;7.15;;
6852;SDS011;3465;42.144;24.722;2022-08-19T03:18:44;12.68;;;7.78;;
6852;SDS011;3465;42.144;24.722;2022-08-19T03:21:14;16.77;;;7.93;;
6852;SDS011;3465;42.144;24.722;2022-08-19T03:23:44;20.23;;;8.35;;
6852;SDS011;3465;42.144;24.722;2022-08-19T03:26:09;16.55;;;8.00;;
6852;SDS011;3465;42.144;24.722;2022-08-19T03:28:40;22.48;;;8.63;;
6852;SDS011;3465;42.144;24.722;2022-08-19T03:31:07;14.48;;;7.30;;
6852;SDS011;3465;42.144;24.722;2022-08-19T03:33:36;16.77;;;8.13;;
6852;SDS011;3465;42.144;24.722;2022-08-19T03:36:07;10.82;;;7.68;;
6852;SDS011;3465;42.144;24.722;2022-08-19T03:38:35;14.80;;;8.05;;
6852;SDS011;3465;42.144;24.722;2022-08-19T03:41:04;16.98;;;7.85;;
6852;SDS011;3465;42.144;24.722;2022-08-19T03:43:31;16.45;;;8.77;;
6852;SDS011;3465;42.144;24.722;2022-08-19T03:46:06;22.42;;;8.32;;
6852;SDS011;3465;42.144;24.722;2022-08-19T03:48:33;20.27;;;8.32;;
6852;SDS011;3465;42.144;24.722;2022-08-19T03:51:00;15.05;;;7.93;;
6852;SDS011;3465;42.144;24.722;2022-08-19T03:53:26;25.38;;;8.40;;
6852;SDS011;3465;42.144;24.722;2022-08-19T03:55:53;20.85;;;9.20;;
6852;SDS011;3465;42.144;24.722;2022-08-19T03:58:20;17.48;;;8.00;;
6852;SDS011;3465;42.144;24.722;2022-08-19T04:00:45;16.92;;;8.02;;
6852;SDS011;3465;42.144;24.722;2022-08-19T04:03:11;20.55;;;8.20;;
6852;SDS011;3465;42.144;24.722;2022-08-19T04:05:36;18.17;;;8.27;;
6852;SDS011;3465;42.144;24.722;2022-08-19T04:08:02;11.55;;;7.47;;
6852;SDS011;3465;42.144;24.722;2022-08-19T04:10:31;18.38;;;8.25;;
6852;SDS011;3465;42.144;24.722;2022-08-19T04:13:01;22.80;;;8.05;;
6852;SDS011;3465;42.144;24.722;2022-08-19T04:15:27;12.57;;;7.72;;
6852;SDS011;3465;42.144;24.722;2022-08-19T04:17:56;15.80;;;8.05;;
6852;SDS011;3465;42.144;24.722;2022-08-19T04:20:21;17.35;;;8.48;;
6852;SDS011;3465;42.144;24.722;2022-08-19T04:22:46;19.63;;;9.95;;
6852;SDS011;3465;42.144;24.722;2022-08-19T04:25:12;17.13;;;9.52;;
6852;SDS011;3465;42.144;24.722;2022-08-19T04:27:37;18.10;;;7.90;;
6852;SDS011;3465;42.144;24.722;2022-08-19T04:30:03;16.27;;;8.07;;
6852;SDS011;3465;42.144;24.722;2022-08-19T04:32:29;18.70;;;7.78;;
6852;SDS011;3465;42.144;24.722;2022-08-19T04:34:56;16.40;;;8.32;;
6852;SDS011;3465;42.144;24.722;2022-08-19T04:37:23;12.95;;;7.88;;
6852;SDS011;3465;42.144;24.722;2022-08-19T04:39:49;15.25;;;7.55;;
6852;SDS011;3465;42.144;24.722;2022-08-19T04:42:33;16.25;;;7.55;;
6852;SDS011;3465;42.144;24.722;2022-08-19T04:45:05;14.23;;;8.23;;
6852;SDS011;3465;42.144;24.722;2022-08-19T04:47:34;16.88;;;7.90;;
6852;SDS011;3465;42.144;24.722;2022-08-19T04:50:02;11.68;;;7.85;;
6852;SDS011;3465;42.144;24.722;2022-08-19T04:52:29;11.00;;;7.15;;
6852;SDS011;3465;42.144;24.722;2022-08-19T04:54:56;13.65;;;7.93;;
6852;SDS011;3465;42.144;24.722;2022-08-19T04:57:22;16.65;;;7.65;;
6852;SDS011;3465;42.144;24.722;2022-08-19T04:59:47;14.63;;;7.40;;
6852;SDS011;3465;42.144;24.722;2022-08-19T05:02:13;10.85;;;7.32;;
6852;SDS011;3465;42.144;24.722;2022-08-19T05:04:39;12.88;;;7.78;;
6852;SDS011;3465;42.144;24.722;2022-08-19T05:07:04;18.95;;;7.88;;
6852;SDS011;3465;42.144;24.722;2022-08-19T05:09:31;15.23;;;7.93;;
6852;SDS011;3465;42.144;24.722;2022-08-19T05:11:56;12.50;;;7.20;;
6852;SDS011;3465;42.144;24.722;2022-08-19T05:14:22;18.35;;;7.55;;
6852;SDS011;3465;42.144;24.722;2022-08-19T05:16:48;13.93;;;7.60;;
6852;SDS011;3465;42.144;24.722;2022-08-19T05:19:13;15.77;;;8.18;;
6852;SDS011;3465;42.144;24.722;2022-08-19T05:21:58;16.65;;;8.13;;
6852;SDS011;3465;42.144;24.722;2022-08-19T05:24:43;20.13;;;8.20;;
6852;SDS011;3465;42.144;24.722;2022-08-19T05:27:09;16.60;;;8.60;;
6852;SDS011;3465;42.144;24.722;2022-08-19T05:29:34;16.65;;;7.35;;
6852;SDS011;3465;42.144;24.722;2022-08-19T05:32:00;16.10;;;7.40;;
6852;SDS011;3465;42.144;24.722;2022-08-19T05:34:28;12.70;;;6.82;;
6852;SDS011;3465;42.144;24.722;2022-08-19T05:36:54;13.15;;;6.35;;
6852;SDS011;3465;42.144;24.722;2022-08-19T05:39:23;9.73;;;6.22;;
6852;SDS011;3465;42.144;24.722;2022-08-19T05:41:52;11.93;;;6.75;;
6852;SDS011;3465;42.144;24.722;2022-08-19T05:44:22;18.02;;;7.00;;
6852;SDS011;3465;42.144;24.722;2022-08-19T05:46:48;27.95;;;7.90;;
6852;SDS011;3465;42.144;24.722;2022-08-19T05:49:14;25.25;;;7.32;;
6852;SDS011;3465;42.144;24.722;2022-08-19T05:51:40;20.27;;;6.97;;
6852;SDS011;3465;42.144;24.722;2022-08-19T05:54:06;20.02;;;6.60;;
6852;SDS011;3465;42.144;24.722;2022-08-19T05:56:33;23.50;;;6.88;;
6852;SDS011;3465;42.144;24.722;2022-08-19T05:59:03;32.00;;;6.75;;
6852;SDS011;3465;42.144;24.722;2022-08-19T06:01:33;14.98;;;5.90;;
6852;SDS011;3465;42.144;24.722;2022-08-19T06:03:59;21.65;;;7.25;;
6852;SDS011;3465;42.144;24.722;2022-08-19T06:06:25;10.52;;;6.00;;
6852;SDS011;3465;42.144;24.722;2022-08-19T06:08:53;15.32;;;5.78;;
6852;SDS011;3465;42.144;24.722;2022-08-19T06:14:15;15.13;;;6.60;;
6852;SDS011;3465;42.144;24.722;2022-08-19T06:16:43;15.13;;;6.03;;
6852;SDS011;3465;42.144;24.722;2022-08-19T06:19:11;10.73;;;5.68;;
6852;SDS011;3465;42.144;24.722;2022-08-19T06:21:42;8.93;;;5.55;;
6852;SDS011;3465;42.144;24.722;2022-08-19T06:24:10;10.93;;;5.25;;
6852;SDS011;3465;42.144;24.722;2022-08-19T06:26:39;9.77;;;5.07;;
6852;SDS011;3465;42.144;24.722;2022-08-19T06:29:07;10.93;;;4.88;;
6852;SDS011;3465;42.144;24.722;2022-08-19T06:31:34;10.20;;;5.22;;
6852;SDS011;3465;42.144;24.722;2022-08-19T06:34:01;14.90;;;5.25;;
6852;SDS011;3465;42.144;24.722;2022-08-19T06:36:30;11.30;;;5.30;;
6852;SDS011;3465;42.144;24.722;2022-08-19T06:38:59;7.43;;;5.60;;
6852;SDS011;3465;42.144;24.722;2022-08-19T06:41:26;9.68;;;4.93;;
6852;SDS011;3465;42.144;24.722;2022-08-19T06:43:53;7.15;;;5.03;;
6852;SDS011;3465;42.144;24.722;2022-08-19T06:46:19;15.60;;;4.63;;
6852;SDS011;3465;42.144;24.722;2022-08-19T06:48:45;10.35;;;4.60;;
6852;SDS011;3465;42.144;24.722;2022-08-19T06:51:12;11.95;;;5.40;;
6852;SDS011;3465;42.144;24.722;2022-08-19T06:53:40;13.73;;;5.25;;
6852;SDS011;3465;42.144;24.722;2022-08-19T06:56:12;8.70;;;5.40;;
6852;SDS011;3465;42.144;24.722;2022-08-19T06:58:39;11.75;;;4.93;;
6852;SDS011;3465;42.144;24.722;2022-08-19T07:01:05;9.75;;;5.07;;
6852;SDS011;3465;42.144;24.722;2022-08-19T07:03:31;16.23;;;5.65;;
6852;SDS011;3465;42.144;24.722;2022-08-19T07:06:10;13.50;;;4.88;;
6852;SDS011;3465;42.144;24.722;2022-08-19T07:08:39;8.88;;;4.40;;
6852;SDS011;3465;42.144;24.722;2022-08-19T07:11:09;12.48;;;4.47;;
6852;SDS011;3465;42.144;24.722;2022-08-19T07:13:36;9.65;;;4.30;;
6852;SDS011;3465;42.144;24.722;2022-08-19T07:16:06;12.00;;;4.70;;
6852;SDS011;3465;42.144;24.722;2022-08-19T07:18:33;9.75;;;4.47;;
6852;SDS011;3465;42.144;24.722;2022-08-19T07:21:09;8.70;;;4.22;;
6852;SDS011;3465;42.144;24.722;2022-08-19T07:23:36;8.85;;;4.50;;
6852;SDS011;3465;42.144;24.722;2022-08-19T07:26:06;10.48;;;3.90;;
6852;SDS011;3465;42.144;24.722;2022-08-19T07:28:34;10.05;;;4.90;;
6852;SDS011;3465;42.144;24.722;2022-08-19T07:31:00;7.72;;;4.60;;
6852;SDS011;3465;42.144;24.722;2022-08-19T07:33:27;5.78;;;3.63;;
6852;SDS011;3465;42.144;24.722;2022-08-19T07:35:52;7.70;;;4.20;;
6852;SDS011;3465;42.144;24.722;2022-08-19T07:38:18;5.18;;;3.83;;
6852;SDS011;3465;42.144;24.722;2022-08-19T07:40:44;8.90;;;4.28;;
6852;SDS011;3465;42.144;24.722;2022-08-19T07:43:11;8.40;;;4.88;;
6852;SDS011;3465;42.144;24.722;2022-08-19T07:45:36;7.80;;;4.38;;
6852;SDS011;3465;42.144;24.722;2022-08-19T07:48:02;7.43;;;4.70;;
6852;SDS011;3465;42.144;24.722;2022-08-19T07:50:28;9.45;;;4.50;;
6852;SDS011;3465;42.144;24.722;2022-08-19T07:52:54;7.38;;;4.10;;
6852;SDS011;3465;42.144;24.722;2022-08-19T07:55:24;7.80;;;3.72;;
6852;SDS011;3465;42.144;24.722;2022-08-19T07:57:50;9.65;;;4.20;;
6852;SDS011;3465;42.144;24.722;2022-08-19T08:00:17;8.68;;;4.18;;
6852;SDS011;3465;42.144;24.722;2022-08-19T08:02:43;6.68;;;4.13;;
6852;SDS011;3465;42.144;24.722;2022-08-19T08:05:09;9.18;;;4.15;;
6852;SDS011;3465;42.144;24.722;2022-08-19T08:07:54;7.40;;;3.72;;
6852;SDS011;3465;42.144;24.722;2022-08-19T08:10:38;8.68;;;4.00;;
6852;SDS011;3465;42.144;24.722;2022-08-19T08:13:03;5.70;;;3.78;;
6852;SDS011;3465;42.144;24.722;2022-08-19T08:15:30;5.45;;;4.18;;
6852;SDS011;3465;42.144;24.722;2022-08-19T08:17:56;4.40;;;3.78;;
6852;SDS011;3465;42.144;24.722;2022-08-19T08:20:22;6.20;;;4.60;;
6852;SDS011;3465;42.144;24.722;2022-08-19T08:22:48;11.05;;;4.40;;
6852;SDS011;3465;42.144;24.722;2022-08-19T08:25:33;4.20;;;3.80;;
6852;SDS011;3465;42.144;24.722;2022-08-19T08:28:00;12.05;;;4.68;;
6852;SDS011;3465;42.144;24.722;2022-08-19T08:30:27;8.13;;;3.97;;
6852;SDS011;3465;42.144;24.722;2022-08-19T08:32:54;18.80;;;4.90;;
6852;SDS011;3465;42.144;24.722;2022-08-19T08:35:20;6.13;;;4.25;;
6852;SDS011;3465;42.144;24.722;2022-08-19T08:37:47;5.50;;;4.53;;
6852;SDS011;3465;42.144;24.722;2022-08-19T08:40:38;6.18;;;3.92;;
6852;SDS011;3465;42.144;24.722;2022-08-19T08:46:06;16.50;;;5.18;;
6852;SDS011;3465;42.144;24.722;2022-08-19T08:48:42;12.20;;;3.80;;
6852;SDS011;3465;42.144;24.722;2022-08-19T08:51:14;8.35;;;4.30;;
6852;SDS011;3465;42.144;24.722;2022-08-19T08:53:44;8.68;;;4.35;;
6852;SDS011;3465;42.144;24.722;2022-08-19T08:56:14;8.27;;;4.22;;
6852;SDS011;3465;42.144;24.722;2022-08-19T08:59:01;8.00;;;4.03;;
6852;SDS011;3465;42.144;24.722;2022-08-19T09:01:35;7.82;;;4.35;;
6852;SDS011;3465;42.144;24.722;2022-08-19T09:04:05;5.75;;;3.67;;
6852;SDS011;3465;42.144;24.722;2022-08-19T09:17:08;9.80;;;3.58;;
6852;SDS011;3465;42.144;24.722;2022-08-19T09:19:48;8.35;;;3.92;;
6852;SDS011;3465;42.144;24.722;2022-08-19T09:22:14;9.90;;;3.95;;
6852;SDS011;3465;42.144;24.722;2022-08-19T09:24:39;9.07;;;4.25;;
6852;SDS011;3465;42.144;24.722;2022-08-19T09:27:05;7.03;;;4.57;;
6852;SDS011;3465;42.144;24.722;2022-08-19T09:29:31;10.15;;;4.22;;
6852;SDS011;3465;42.144;24.722;2022-08-19T09:31:56;5.60;;;3.80;;
6852;SDS011;3465;42.144;24.722;2022-08-19T09:34:22;5.97;;;4.07;;
6852;SDS011;3465;42.144;24.722;2022-08-19T09:36:47;10.60;;;4.03;;
6852;SDS011;3465;42.144;24.722;2022-08-19T09:39:18;5.40;;;4.47;;
6852;SDS011;3465;42.144;24.722;2022-08-19T09:41:43;6.95;;;4.40;;
6852;SDS011;3465;42.144;24.722;2022-08-19T09:44:15;9.68;;;4.00;;
6852;SDS011;3465;42.144;24.722;2022-08-19T09:46:40;5.03;;;3.88;;
6852;SDS011;3465;42.144;24.722;2022-08-19T09:49:06;7.30;;;3.92;;
6852;SDS011;3465;42.144;24.722;2022-08-19T09:51:32;3.83;;;3.50;;
6852;SDS011;3465;42.144;24.722;2022-08-19T09:53:59;5.10;;;3.70;;
6852;SDS011;3465;42.144;24.722;2022-08-19T09:56:26;8.93;;;3.45;;
6852;SDS011;3465;42.144;24.722;2022-08-19T09:58:57;6.65;;;3.65;;
6852;SDS011;3465;42.144;24.722;2022-08-19T10:01:25;6.30;;;3.92;;
6852;SDS011;3465;42.144;24.722;2022-08-19T10:03:53;6.10;;;3.67;;
6852;SDS011;3465;42.144;24.722;2022-08-19T10:06:20;10.23;;;3.95;;
6852;SDS011;3465;42.144;24.722;2022-08-19T10:08:48;4.30;;;3.75;;
6852;SDS011;3465;42.144;24.722;2022-08-19T10:11:18;8.98;;;4.07;;
6852;SDS011;3465;42.144;24.722;2022-08-19T10:13:45;5.72;;;3.33;;
6852;SDS011;3465;42.144;24.722;2022-08-19T10:16:13;6.13;;;3.70;;
6852;SDS011;3465;42.144;24.722;2022-08-19T10:18:44;5.15;;;3.65;;
6852;SDS011;3465;42.144;24.722;2022-08-19T10:21:12;5.22;;;3.40;;
6852;SDS011;3465;42.144;24.722;2022-08-19T10:23:40;3.53;;;3.22;;
6852;SDS011;3465;42.144;24.722;2022-08-19T10:26:10;4.82;;;3.78;;
6852;SDS011;3465;42.144;24.722;2022-08-19T10:28:37;4.53;;;3.50;;
6852;SDS011;3465;42.144;24.722;2022-08-19T10:31:04;7.93;;;3.80;;
6852;SDS011;3465;42.144;24.722;2022-08-19T10:33:31;8.88;;;3.90;;
6852;SDS011;3465;42.144;24.722;2022-08-19T10:36:04;8.75;;;3.50;;
6852;SDS011;3465;42.144;24.722;2022-08-19T10:38:32;5.07;;;3.53;;
6852;SDS011;3465;42.144;24.722;2022-08-19T10:41:06;8.30;;;3.95;;
6852;SDS011;3465;42.144;24.722;2022-08-19T10:43:40;10.05;;;5.38;;
6852;SDS011;3465;42.144;24.722;2022-08-19T10:46:10;7.18;;;4.10;;
6852;SDS011;3465;42.144;24.722;2022-08-19T10:48:40;4.82;;;3.50;;
6852;SDS011;3465;42.144;24.722;2022-08-19T10:51:09;5.40;;;3.40;;
6852;SDS011;3465;42.144;24.722;2022-08-19T10:53:53;3.35;;;3.03;;
6852;SDS011;3465;42.144;24.722;2022-08-19T10:56:20;3.50;;;3.20;;
6852;SDS011;3465;42.144;24.722;2022-08-19T10:59:05;4.10;;;3.28;;
6852;SDS011;3465;42.144;24.722;2022-08-19T11:01:31;7.82;;;3.65;;
6852;SDS011;3465;42.144;24.722;2022-08-19T11:03:59;5.63;;;3.80;;
6852;SDS011;3465;42.144;24.722;2022-08-19T11:06:26;6.65;;;3.88;;
6852;SDS011;3465;42.144;24.722;2022-08-19T11:08:53;9.48;;;3.38;;
6852;SDS011;3465;42.144;24.722;2022-08-19T11:11:19;5.15;;;3.00;;
6852;SDS011;3465;42.144;24.722;2022-08-19T11:13:46;4.22;;;3.28;;
6852;SDS011;3465;42.144;24.722;2022-08-19T11:16:14;3.50;;;3.20;;
6852;SDS011;3465;42.144;24.722;2022-08-19T11:18:45;5.22;;;3.40;;
6852;SDS011;3465;42.144;24.722;2022-08-19T11:21:14;4.97;;;3.50;;
6852;SDS011;3465;42.144;24.722;2022-08-19T11:23:42;4.78;;;3.17;;
6852;SDS011;3465;42.144;24.722;2022-08-19T11:26:09;3.10;;;2.80;;
6852;SDS011;3465;42.144;24.722;2022-08-19T11:28:35;5.00;;;3.00;;
6852;SDS011;3465;42.144;24.722;2022-08-19T11:31:01;5.63;;;3.40;;
6852;SDS011;3465;42.144;24.722;2022-08-19T11:33:28;6.00;;;3.50;;
6852;SDS011;3465;42.144;24.722;2022-08-19T11:35:56;5.32;;;3.13;;
6852;SDS011;3465;42.144;24.722;2022-08-19T11:38:24;4.65;;;3.70;;
6852;SDS011;3465;42.144;24.722;2022-08-19T11:40:54;7.05;;;3.83;;
6852;SDS011;3465;42.144;24.722;2022-08-19T11:43:23;6.75;;;3.40;;
6852;SDS011;3465;42.144;24.722;2022-08-19T11:45:51;5.05;;;3.45;;
6852;SDS011;3465;42.144;24.722;2022-08-19T11:48:17;4.00;;;3.53;;
6852;SDS011;3465;42.144;24.722;2022-08-19T11:50:50;5.72;;;3.60;;
6852;SDS011;3465;42.144;24.722;2022-08-19T11:53:18;8.35;;;3.22;;
6852;SDS011;3465;42.144;24.722;2022-08-19T11:55:45;3.92;;;3.20;;
6852;SDS011;3465;42.144;24.722;2022-08-19T11:58:12;10.80;;;3.60;;
6852;SDS011;3465;42.144;24.722;2022-08-19T12:00:39;6.28;;;4.13;;
6852;SDS011;3465;42.144;24.722;2022-08-19T12:03:05;3.38;;;3.08;;
6852;SDS011;3465;42.144;24.722;2022-08-19T12:05:30;9.15;;;3.53;;
6852;SDS011;3465;42.144;24.722;2022-08-19T12:07:56;4.53;;;3.40;;
6852;SDS011;3465;42.144;24.722;2022-08-19T12:10:21;5.07;;;3.58;;
6852;SDS011;3465;42.144;24.722;2022-08-19T12:12:47;3.15;;;2.80;;
6852;SDS011;3465;42.144;24.722;2022-08-19T12:15:13;3.28;;;2.97;;
6852;SDS011;3465;42.144;24.722;2022-08-19T12:17:40;5.82;;;3.55;;
6852;SDS011;3465;42.144;24.722;2022-08-19T12:20:06;5.95;;;3.47;;
6852;SDS011;3465;42.144;24.722;2022-08-19T12:22:36;4.22;;;3.45;;
6852;SDS011;3465;42.144;24.722;2022-08-19T12:25:02;6.35;;;3.53;;
6852;SDS011;3465;42.144;24.722;2022-08-19T12:27:29;4.22;;;3.50;;
6852;SDS011;3465;42.144;24.722;2022-08-19T12:29:55;6.22;;;3.20;;
6852;SDS011;3465;42.144;24.722;2022-08-19T12:32:20;6.13;;;4.38;;
6852;SDS011;3465;42.144;24.722;2022-08-19T12:34:46;6.82;;;3.42;;
6852;SDS011;3465;42.144;24.722;2022-08-19T12:37:12;4.03;;;3.47;;
6852;SDS011;3465;42.144;24.722;2022-08-19T12:39:38;7.95;;;3.53;;
6852;SDS011;3465;42.144;24.722;2022-08-19T12:42:06;4.68;;;3.60;;
6852;SDS011;3465;42.144;24.722;2022-08-19T12:44:34;10.75;;;4.20;;
6852;SDS011;3465;42.144;24.722;2022-08-19T12:47:01;6.18;;;3.70;;
6852;SDS011;3465;42.144;24.722;2022-08-19T12:49:28;3.90;;;3.22;;
6852;SDS011;3465;42.144;24.722;2022-08-19T12:51:56;7.07;;;3.60;;
6852;SDS011;3465;42.144;24.722;2022-08-19T12:54:23;8.10;;;4.30;;
6852;SDS011;3465;42.144;24.722;2022-08-19T12:56:48;4.20;;;3.60;;
6852;SDS011;3465;42.144;24.722;2022-08-19T12:59:13;5.40;;;3.45;;
6852;SDS011;3465;42.144;24.722;2022-08-19T13:01:41;4.65;;;3.67;;
6852;SDS011;3465;42.144;24.722;2022-08-19T13:04:08;9.75;;;3.83;;
6852;SDS011;3465;42.144;24.722;2022-08-19T13:06:33;10.27;;;3.55;;
6852;SDS011;3465;42.144;24.722;2022-08-19T13:08:59;4.50;;;3.30;;
6852;SDS011;3465;42.144;24.722;2022-08-19T13:11:24;5.93;;;3.65;;
6852;SDS011;3465;42.144;24.722;2022-08-19T13:13:50;4.18;;;3.67;;
6852;SDS011;3465;42.144;24.722;2022-08-19T13:16:17;4.97;;;3.55;;
6852;SDS011;3465;42.144;24.722;2022-08-19T13:18:45;8.52;;;3.72;;
6852;SDS011;3465;42.144;24.722;2022-08-19T13:21:18;5.80;;;4.00;;
6852;SDS011;3465;42.144;24.722;2022-08-19T13:23:50;4.38;;;3.70;;
6852;SDS011;3465;42.144;24.722;2022-08-19T13:26:16;4.90;;;3.70;;
6852;SDS011;3465;42.144;24.722;2022-08-19T13:28:42;5.13;;;3.65;;
6852;SDS011;3465;42.144;24.722;2022-08-19T13:31:32;6.97;;;3.80;;
6852;SDS011;3465;42.144;24.722;2022-08-19T13:34:19;6.65;;;3.90;;
6852;SDS011;3465;42.144;24.722;2022-08-19T13:36:52;4.75;;;3.90;;
6852;SDS011;3465;42.144;24.722;2022-08-19T13:39:17;4.50;;;4.10;;
6852;SDS011;3465;42.144;24.722;2022-08-19T13:41:43;6.65;;;4.00;;
6852;SDS011;3465;42.144;24.722;2022-08-19T13:44:13;6.13;;;3.92;;
6852;SDS011;3465;42.144;24.722;2022-08-19T13:46:40;4.55;;;4.13;;
6852;SDS011;3465;42.144;24.722;2022-08-19T13:49:09;5.30;;;4.00;;
6852;SDS011;3465;42.144;24.722;2022-08-19T13:51:36;9.32;;;3.92;;
6852;SDS011;3465;42.144;24.722;2022-08-19T13:54:04;10.45;;;4.18;;
6852;SDS011;3465;42.144;24.722;2022-08-19T13:56:29;4.55;;;4.15;;
6852;SDS011;3465;42.144;24.722;2022-08-19T13:58:55;7.97;;;4.13;;
6852;SDS011;3465;42.144;24.722;2022-08-19T14:01:21;4.88;;;4.13;;
6852;SDS011;3465;42.144;24.722;2022-08-19T14:03:47;5.43;;;4.07;;
6852;SDS011;3465;42.144;24.722;2022-08-19T14:06:13;7.15;;;3.88;;
6852;SDS011;3465;42.144;24.722;2022-08-19T14:08:38;5.80;;;4.10;;
6852;SDS011;3465;42.144;24.722;2022-08-19T14:11:06;6.75;;;4.00;;
6852;SDS011;3465;42.144;24.722;2022-08-19T14:13:32;5.43;;;4.40;;
6852;SDS011;3465;42.144;24.722;2022-08-19T14:15:58;8.70;;;3.83;;
6852;SDS011;3465;42.144;24.722;2022-08-19T14:18:24;4.90;;;3.85;;
6852;SDS011;3465;42.144;24.722;2022-08-19T14:20:50;5.32;;;4.03;;
6852;SDS011;3465;42.144;24.722;2022-08-19T14:23:16;14.48;;;4.22;;
6852;SDS011;3465;42.144;24.722;2022-08-19T14:25:42;8.38;;;4.40;;
6852;SDS011;3465;42.144;24.722;2022-08-19T14:28:11;8.25;;;4.60;;
6852;SDS011;3465;42.144;24.722;2022-08-19T14:30:38;8.85;;;3.97;;
6852;SDS011;3465;42.144;24.722;2022-08-19T14:33:06;16.90;;;4.35;;
6852;SDS011;3465;42.144;24.722;2022-08-19T14:35:32;10.95;;;4.22;;
6852;SDS011;3465;42.144;24.722;2022-08-19T14:37:59;8.02;;;4.00;;
6852;SDS011;3465;42.144;24.722;2022-08-19T14:40:26;4.38;;;3.70;;
6852;SDS011;3465;42.144;24.722;2022-08-19T14:42:54;7.63;;;3.80;;
6852;SDS011;3465;42.144;24.722;2022-08-19T14:45:28;16.00;;;4.00;;
6852;SDS011;3465;42.144;24.722;2022-08-19T14:47:53;13.38;;;4.43;;
6852;SDS011;3465;42.144;24.722;2022-08-19T14:50:19;6.68;;;4.35;;
6852;SDS011;3465;42.144;24.722;2022-08-19T14:52:45;11.68;;;4.30;;
6852;SDS011;3465;42.144;24.722;2022-08-19T14:55:13;18.15;;;4.88;;
6852;SDS011;3465;42.144;24.722;2022-08-19T14:57:42;16.42;;;4.28;;
6852;SDS011;3465;42.144;24.722;2022-08-19T15:00:08;13.20;;;4.28;;
6852;SDS011;3465;42.144;24.722;2022-08-19T15:02:38;10.35;;;4.32;;
6852;SDS011;3465;42.144;24.722;2022-08-19T15:05:04;5.18;;;3.95;;
6852;SDS011;3465;42.144;24.722;2022-08-19T15:07:33;6.13;;;4.22;;
6852;SDS011;3465;42.144;24.722;2022-08-19T15:09:59;7.93;;;4.25;;
6852;SDS011;3465;42.144;24.722;2022-08-19T15:12:24;8.57;;;4.07;;
6852;SDS011;3465;42.144;24.722;2022-08-19T15:14:50;6.95;;;4.22;;
6852;SDS011;3465;42.144;24.722;2022-08-19T15:17:17;11.85;;;4.13;;